Flagstaff, Arizona
Current Conditions -  °F | °C
As of 12:57 AM on Monday 22 Dec 2014 (Local Time) from KFLG Reporting Station
Clear Clear  
Wind Chill:   Ceiling: Unl
Heat Index:   Visibility: 10mi
Dew Point: -1°   Wind: 5mph
Humidity: 65%   Direction: NA
Pressure: 30.12"   Gusts: NA
Location:  35.2°N, 111.65°W
Report Text: KFLG 220757Z AUTO VRB04KT 10SM CLR 05/M01 A3012 RMK AO2 SLP141 T00501011 TSNO
Loading
Personal Weather Stations






























Interactive Weather Map New forecast layout! Learn more

10-Day Weather Forecast

Advertisements
Track Severe Weather on mobile